createdAt,value
2022-08-30T00:01:02.351Z,101748.94
2022-08-30T00:03:30.920Z,101753.59
2022-08-30T00:05:58.085Z,101750.84
2022-08-30T00:08:25.011Z,101759.06
2022-08-30T00:10:51.707Z,101753.75
2022-08-30T00:13:19.734Z,101763.00
2022-08-30T00:15:46.613Z,101751.41
2022-08-30T00:18:13.513Z,101758.75
2022-08-30T00:20:40.518Z,101762.53
2022-08-30T00:23:07.597Z,101762.53
2022-08-30T00:25:34.831Z,101768.03
2022-08-30T00:28:01.534Z,101772.50
2022-08-30T00:30:28.307Z,101768.94
2022-08-30T00:32:55.144Z,101768.19
2022-08-30T00:35:22.295Z,101769.13
2022-08-30T00:37:50.929Z,101766.50
2022-08-30T00:40:20.507Z,101766.56
2022-08-30T00:42:59.331Z,101759.63
2022-08-30T00:45:37.318Z,101758.88
2022-08-30T00:48:05.291Z,101755.53
2022-08-30T00:50:36.491Z,101756.47
2022-08-30T00:53:06.628Z,101762.94
2022-08-30T00:55:33.433Z,101766.53
2022-08-30T00:58:04.245Z,101762.13
2022-08-30T01:00:31.891Z,101763.03
2022-08-30T01:02:58.710Z,101766.63
2022-08-30T01:05:25.425Z,101771.94
2022-08-30T01:07:52.124Z,101765.84
2022-08-30T01:10:20.203Z,101767.56
2022-08-30T01:12:47.620Z,101775.56
2022-08-30T01:15:14.843Z,101772.09
2022-08-30T01:17:45.433Z,101773.91
2022-08-30T01:20:16.221Z,101772.03
2022-08-30T01:22:49.813Z,101777.31
2022-08-30T01:25:22.795Z,101775.56
2022-08-30T01:27:53.052Z,101776.44
2022-08-30T01:30:19.937Z,101773.81
2022-08-30T01:32:47.763Z,101780.91
2022-08-30T01:35:18.117Z,101785.34
2022-08-30T01:37:45.272Z,101782.59
2022-08-30T01:40:14.323Z,101782.59
2022-08-30T01:42:41.593Z,101776.38
2022-08-30T01:45:09.069Z,101779.06
2022-08-30T01:47:36.132Z,101770.94
2022-08-30T01:50:04.637Z,101768.19
2022-08-30T01:52:31.580Z,101777.13
2022-08-30T01:54:58.387Z,101768.25
2022-08-30T01:57:27.039Z,101771.59
2022-08-30T01:59:54.017Z,101774.22
2022-08-30T02:02:23.648Z,101778.75
2022-08-30T02:04:51.890Z,101777.78
2022-08-30T02:07:18.653Z,101777.72
2022-08-30T02:09:46.250Z,101773.38
2022-08-30T02:12:13.319Z,101774.44
2022-08-30T02:14:40.323Z,101769.13
2022-08-30T02:17:10.245Z,101773.63
2022-08-30T02:19:36.967Z,101765.56
2022-08-30T02:22:03.799Z,101768.19
2022-08-30T02:24:30.696Z,101762.81
2022-08-30T02:26:57.488Z,101757.59
2022-08-30T02:29:24.967Z,101764.66
2022-08-30T02:31:51.802Z,101764.66
2022-08-30T02:34:19.034Z,101761.31
2022-08-30T02:36:46.269Z,101768.59
2022-08-30T02:39:13.858Z,101757.94
2022-08-30T02:41:41.817Z,101765.19
2022-08-30T02:44:09.327Z,101765.28
2022-08-30T02:46:36.527Z,101770.78
2022-08-30T02:49:29.981Z,101762.81
2022-08-30T02:51:50.632Z,101765.47
2022-08-30T02:54:20.231Z,101762.03
2022-08-30T02:56:48.058Z,101762.97
2022-08-30T02:59:15.983Z,101753.28
2022-08-30T03:01:42.853Z,101764.09
2022-08-30T03:04:10.057Z,101764.25
2022-08-30T03:06:36.764Z,101760.41
2022-08-30T03:09:04.029Z,101761.34
2022-08-30T03:11:31.294Z,101762.38
2022-08-30T03:13:58.247Z,101763.41
2022-08-30T03:16:25.137Z,101762.59
2022-08-30T03:18:51.884Z,101767.88
2022-08-30T03:21:18.689Z,101767.94
2022-08-30T03:23:45.672Z,101765.22
2022-08-30T03:26:14.997Z,101762.44
2022-08-30T03:28:42.659Z,101765.94
2022-08-30T03:31:09.766Z,101771.97
2022-08-30T03:33:37.202Z,101769.22
2022-08-30T03:36:04.060Z,101767.28
2022-08-30T03:38:31.280Z,101773.47
2022-08-30T03:40:58.072Z,101770.72
2022-08-30T03:43:25.484Z,101762.66
2022-08-30T03:45:52.636Z,101767.84
2022-08-30T03:48:19.397Z,101768.38
2022-08-30T03:50:46.118Z,101772.84
2022-08-30T03:53:12.879Z,101769.88
2022-08-30T03:55:39.631Z,101786.84
2022-08-30T03:58:06.409Z,101789.47
2022-08-30T04:00:33.195Z,101783.81
2022-08-30T04:03:00.130Z,101788.28
2022-08-30T04:05:27.491Z,101788.44
2022-08-30T04:07:54.720Z,101787.56
2022-08-30T04:10:21.582Z,101789.47
2022-08-30T04:12:49.895Z,101791.00
2022-08-30T04:15:17.897Z,101790.19
2022-08-30T04:17:44.928Z,101792.88
2022-08-30T04:20:11.745Z,101791.13
2022-08-30T04:22:38.498Z,101788.56
2022-08-30T04:25:06.371Z,101784.19
2022-08-30T04:27:33.112Z,101794.03
2022-08-30T04:30:00.334Z,101799.59
2022-08-30T04:32:27.158Z,101799.75
2022-08-30T04:34:58.742Z,101796.16
2022-08-30T04:37:25.905Z,101802.63
2022-08-30T04:40:03.630Z,101796.31
2022-08-30T04:42:33.157Z,101803.63
2022-08-30T04:45:03.162Z,101795.63
2022-08-30T04:47:29.961Z,101802.75
2022-08-30T04:49:56.758Z,101804.59
2022-08-30T04:52:23.474Z,101801.94
2022-08-30T04:54:55.605Z,101809.06
2022-08-30T04:57:22.820Z,101813.66
2022-08-30T04:59:49.606Z,101813.66
2022-08-30T05:02:17.821Z,101816.34
2022-08-30T05:05:04.752Z,101814.47
2022-08-30T05:07:32.791Z,101818.75
2022-08-30T05:09:59.817Z,101814.13
2022-08-30T05:12:27.245Z,101817.56
2022-08-30T05:14:54.014Z,101820.97
2022-08-30T05:17:23.596Z,101819.06
2022-08-30T05:19:50.313Z,101827.56
2022-08-30T05:22:17.129Z,101834.56
2022-08-30T05:24:43.941Z,101824.47
2022-08-30T05:27:10.688Z,101823.31
2022-08-30T05:29:37.422Z,101828.72
2022-08-30T05:32:04.167Z,101826.63
2022-08-30T05:34:31.090Z,101834.31
2022-08-30T05:36:57.887Z,101837.53
2022-08-30T05:39:24.658Z,101848.31
2022-08-30T05:41:51.375Z,101838.72
2022-08-30T05:44:18.197Z,101840.03
2022-08-30T05:46:46.388Z,101850.25
2022-08-30T05:49:13.261Z,101840.09
2022-08-30T05:51:41.040Z,101844.97
2022-08-30T05:54:10.874Z,101846.47
2022-08-30T05:56:39.297Z,101842.66
2022-08-30T05:59:07.548Z,101846.00
2022-08-30T06:01:43.329Z,101845.88
2022-08-30T06:04:12.063Z,101852.00
2022-08-30T06:06:41.139Z,101848.63
2022-08-30T06:09:09.693Z,101851.78
2022-08-30T06:11:37.047Z,101844.19
2022-08-30T06:14:05.455Z,101843.84
2022-08-30T06:16:33.015Z,101846.16
2022-08-30T06:19:00.626Z,101843.84
2022-08-30T06:21:33.947Z,101846.03
2022-08-30T06:24:01.192Z,101845.66
2022-08-30T06:26:29.652Z,101851.53
2022-08-30T06:28:57.590Z,101842.81
2022-08-30T06:31:25.766Z,101846.00
2022-08-30T06:33:53.037Z,101850.22
2022-08-30T06:36:22.916Z,101857.81
2022-08-30T06:38:51.007Z,101861.78
2022-08-30T06:41:20.455Z,101862.38
2022-08-30T06:43:49.229Z,101854.59
2022-08-30T06:46:26.194Z,101855.66
2022-08-30T06:48:57.042Z,101859.53
2022-08-30T06:51:32.495Z,101855.16
2022-08-30T06:54:01.946Z,101851.97
2022-08-30T06:56:28.760Z,101854.09
2022-08-30T06:58:55.661Z,101861.25
2022-08-30T07:01:25.967Z,101852.63
2022-08-30T07:03:53.510Z,101851.97
2022-08-30T07:06:20.670Z,101847.25
2022-08-30T07:08:48.123Z,101847.44
2022-08-30T07:11:15.942Z,101848.88
2022-08-30T07:13:42.691Z,101858.28
2022-08-30T07:16:11.850Z,101851.44
2022-08-30T07:18:56.782Z,101859.22
2022-08-30T07:21:37.288Z,101853.22
2022-08-30T07:24:05.023Z,101851.88
2022-08-30T07:26:41.814Z,101858.22
2022-08-30T07:29:09.675Z,101854.84
2022-08-30T07:31:37.710Z,101859.13
2022-08-30T07:34:05.937Z,101861.97
2022-08-30T07:36:33.575Z,101864.66
2022-08-30T07:39:00.344Z,101863.25
2022-08-30T07:41:32.877Z,101869.63
2022-08-30T07:43:59.583Z,101866.22
2022-08-30T07:46:27.600Z,101876.53
2022-08-30T07:48:59.336Z,101871.25
2022-08-30T07:51:26.960Z,101881.06
2022-08-30T07:53:54.846Z,101882.75
2022-08-30T07:56:22.497Z,101881.34
2022-08-30T07:58:50.033Z,101879.59
2022-08-30T08:01:17.368Z,101873.47
2022-08-30T08:03:44.720Z,101872.66
2022-08-30T08:06:13.515Z,101873.63
2022-08-30T08:08:40.709Z,101868.38
2022-08-30T08:11:16.713Z,101872.66
2022-08-30T08:13:53.069Z,101873.19
2022-08-30T08:16:26.013Z,101870.47
2022-08-30T08:18:53.805Z,101878.38
2022-08-30T08:21:22.066Z,101869.28
2022-08-30T08:23:49.349Z,101880.56
2022-08-30T08:26:16.126Z,101876.81
2022-08-30T08:28:43.194Z,101886.16
2022-08-30T08:31:23.565Z,101893.16
2022-08-30T08:33:52.260Z,101891.63
2022-08-30T08:36:18.969Z,101885.00
2022-08-30T08:38:45.986Z,101899.66
2022-08-30T08:41:31.512Z,101895.56
2022-08-30T08:43:58.961Z,101894.72
2022-08-30T08:46:45.361Z,101899.28
2022-08-30T08:49:12.762Z,101889.19
2022-08-30T08:51:59.482Z,101898.66
2022-08-30T08:54:35.732Z,101903.16
2022-08-30T08:57:02.614Z,101900.22
2022-08-30T08:59:29.478Z,101900.09
2022-08-30T09:02:00.943Z,101907.09
2022-08-30T09:04:34.441Z,101911.69
2022-08-30T09:07:05.918Z,101910.31
2022-08-30T09:09:35.568Z,101902.81
2022-08-30T09:12:03.641Z,101908.47
2022-08-30T09:14:35.195Z,101903.22
2022-08-30T09:17:10.648Z,101907.25
2022-08-30T09:19:45.731Z,101912.13
2022-08-30T09:22:12.561Z,101915.13
2022-08-30T09:24:45.670Z,101916.63
2022-08-30T09:27:25.323Z,101917.09
2022-08-30T09:29:52.026Z,101909.53
2022-08-30T09:32:31.255Z,101911.75
2022-08-30T09:34:58.674Z,101911.91
2022-08-30T09:37:47.471Z,101917.47
2022-08-30T09:40:21.265Z,101922.03
2022-08-30T09:43:09.536Z,101918.16
2022-08-30T09:45:42.961Z,101914.28
2022-08-30T09:48:21.972Z,101912.06
2022-08-30T09:50:56.890Z,101910.97
2022-08-30T09:53:26.213Z,101919.06
2022-08-30T09:56:10.164Z,101929.03
2022-08-30T09:58:46.170Z,101920.44
2022-08-30T10:01:31.089Z,101922.47
2022-08-30T10:04:17.522Z,101923.03
2022-08-30T10:06:53.900Z,101917.22
2022-08-30T10:09:32.818Z,101914.81
2022-08-30T10:12:13.018Z,101922.56
2022-08-30T10:14:52.098Z,101914.19
2022-08-30T10:17:28.331Z,101922.91
2022-08-30T10:20:15.594Z,101915.34
2022-08-30T10:22:47.054Z,101916.09
2022-08-30T10:25:26.227Z,101908.28
2022-08-30T10:27:59.197Z,101905.81
2022-08-30T10:30:26.650Z,101902.66
2022-08-30T10:33:00.765Z,101899.28
2022-08-30T10:35:38.902Z,101892.94
2022-08-30T10:38:22.162Z,101896.56
2022-08-30T10:41:14.370Z,101893.59
2022-08-30T10:43:50.980Z,101903.16
2022-08-30T10:46:29.917Z,101902.69
2022-08-30T10:48:59.989Z,101898.13
2022-08-30T10:51:28.250Z,101888.78
2022-08-30T10:53:58.140Z,101891.25
2022-08-30T10:56:27.119Z,101891.69
2022-08-30T10:58:55.012Z,101884.78
2022-08-30T11:01:32.252Z,101888.28
2022-08-30T11:04:45.477Z,101885.25
2022-08-30T11:07:18.864Z,101881.50
2022-08-30T11:09:56.680Z,101887.84
2022-08-30T11:12:36.973Z,101876.66
2022-08-30T11:15:32.393Z,101879.53
2022-08-30T11:18:03.746Z,101877.25
2022-08-30T11:21:02.809Z,101875.09
2022-08-30T11:23:36.492Z,101873.94
2022-08-30T11:26:07.561Z,101867.94
2022-08-30T11:28:37.361Z,101857.81
2022-08-30T11:31:04.270Z,101866.88
2022-08-30T11:33:45.048Z,101870.41
2022-08-30T11:36:37.766Z,101856.28
2022-08-30T11:39:10.727Z,101848.59
2022-08-30T11:41:47.679Z,101854.25
2022-08-30T11:44:28.982Z,101850.75
2022-08-30T11:46:58.796Z,101846.78
2022-08-30T11:49:46.936Z,101837.50
2022-08-30T11:52:58.656Z,101834.88
2022-08-30T11:55:33.188Z,101823.44
2022-08-30T11:58:37.786Z,101823.41
2022-08-30T12:01:40.769Z,101827.34
2022-08-30T12:04:10.030Z,101834.88
2022-08-30T12:06:42.110Z,101833.50
2022-08-30T12:09:35.658Z,101825.28
2022-08-30T12:12:05.742Z,101840.78
2022-08-30T12:14:40.793Z,101833.94
2022-08-30T12:17:47.217Z,101833.09
2022-08-30T12:20:40.814Z,101835.25
2022-08-30T12:23:21.671Z,101833.66
2022-08-30T12:25:50.352Z,101829.69
2022-08-30T12:28:24.191Z,101832.78
2022-08-30T12:30:52.064Z,101824.91
2022-08-30T12:33:40.247Z,101821.94
2022-08-30T12:36:31.499Z,101819.41
2022-08-30T12:39:14.621Z,101813.81
2022-08-30T12:41:43.663Z,101813.22
2022-08-30T12:44:15.812Z,101809.59
2022-08-30T12:46:44.202Z,101815.66
2022-08-30T12:49:13.855Z,101810.34
2022-08-30T12:51:42.332Z,101814.75
2022-08-30T12:54:16.163Z,101800.59
2022-08-30T12:56:54.142Z,101808.31
2022-08-30T12:59:40.709Z,101805.69
2022-08-30T13:02:26.192Z,101809.09
2022-08-30T13:04:55.336Z,101801.69
2022-08-30T13:07:28.083Z,101790.88
2022-08-30T13:10:04.894Z,101793.03
2022-08-30T13:12:32.808Z,101792.03
2022-08-30T13:15:12.162Z,101789.81
2022-08-30T13:17:39.000Z,101778.50
2022-08-30T13:20:22.037Z,101783.91
2022-08-30T13:23:09.873Z,101782.16
2022-08-30T13:25:39.039Z,101781.81
2022-08-30T13:28:07.328Z,101788.19
2022-08-30T13:30:34.580Z,101786.59
2022-08-30T13:33:02.268Z,101788.09
2022-08-30T13:35:30.348Z,101783.19
2022-08-30T13:37:57.783Z,101786.72
2022-08-30T13:40:24.994Z,101781.81
2022-08-30T13:42:51.919Z,101777.56
2022-08-30T13:48:06.751Z,101774.56
2022-08-30T13:50:33.820Z,101767.03
2022-08-30T13:53:00.668Z,101767.34
2022-08-30T13:55:28.153Z,101771.38
2022-08-30T13:57:56.417Z,101776.13
2022-08-30T14:00:25.306Z,101772.41
2022-08-30T14:02:57.517Z,101766.19
2022-08-30T14:11:09.570Z,101770.19
2022-08-30T14:13:36.925Z,101763.06
2022-08-30T14:18:55.463Z,101774.50
2022-08-30T14:21:24.835Z,101765.47
2022-08-30T14:23:53.465Z,101771.97
2022-08-30T14:26:24.027Z,101773.66
2022-08-30T14:28:51.915Z,101766.50
2022-08-30T14:31:19.323Z,101765.09
2022-08-30T14:33:47.026Z,101770.94
2022-08-30T14:36:15.683Z,101763.91
2022-08-30T14:38:43.411Z,101768.56
2022-08-30T14:41:11.129Z,101769.38
2022-08-30T14:43:40.742Z,101774.91
2022-08-30T14:46:08.685Z,101765.03
2022-08-30T14:48:37.086Z,101776.09
2022-08-30T14:51:12.251Z,101771.94
2022-08-30T14:53:39.401Z,101775.91
2022-08-30T14:56:11.600Z,101775.56
2022-08-30T14:58:38.584Z,101775.31
2022-08-30T15:01:09.904Z,101769.44
2022-08-30T15:03:41.327Z,101780.03
2022-08-30T15:06:09.135Z,101776.28
2022-08-30T15:08:36.863Z,101771.91
2022-08-30T15:11:11.912Z,101780.84
2022-08-30T15:13:39.608Z,101773.97
2022-08-30T15:16:27.551Z,101775.94
2022-08-30T15:18:55.136Z,101780.97
2022-08-30T15:21:31.409Z,101778.00
2022-08-30T15:24:01.629Z,101778.41
2022-08-30T15:26:28.636Z,101780.31
2022-08-30T15:28:55.791Z,101782.06
2022-08-30T15:31:28.202Z,101777.16
2022-08-30T15:33:55.165Z,101781.94
2022-08-30T15:36:24.422Z,101786.75
2022-08-30T15:38:52.939Z,101773.38
2022-08-30T15:41:19.728Z,101771.19
2022-08-30T15:43:46.614Z,101774.31
2022-08-30T15:46:29.508Z,101772.38
2022-08-30T15:49:03.163Z,101770.63
2022-08-30T15:51:38.820Z,101778.13
2022-08-30T15:54:10.061Z,101771.84
2022-08-30T15:56:39.240Z,101769.13
2022-08-30T15:59:06.257Z,101775.31
2022-08-30T16:01:33.929Z,101767.59
2022-08-30T16:04:01.387Z,101772.91
2022-08-30T16:06:31.822Z,101768.56
2022-08-30T16:08:59.003Z,101772.47
2022-08-30T16:11:25.928Z,101767.63
2022-08-30T16:13:55.258Z,101762.00
2022-08-30T16:16:23.351Z,101770.88
2022-08-30T16:18:54.304Z,101769.25
2022-08-30T16:21:29.772Z,101767.06
2022-08-30T16:23:58.128Z,101768.25
2022-08-30T16:26:25.597Z,101764.41
2022-08-30T16:28:52.688Z,101764.53
2022-08-30T16:31:19.710Z,101765.31
2022-08-30T16:33:47.546Z,101768.72
2022-08-30T16:36:21.141Z,101758.47
2022-08-30T16:38:48.272Z,101749.72
2022-08-30T16:41:21.342Z,101758.72
2022-08-30T16:43:49.699Z,101759.88
2022-08-30T16:46:22.944Z,101755.66
2022-08-30T16:48:50.348Z,101754.03
2022-08-30T16:51:20.004Z,101756.53
2022-08-30T16:53:47.430Z,101757.44
2022-08-30T16:56:17.010Z,101751.13
2022-08-30T16:58:45.013Z,101754.22
2022-08-30T17:01:13.201Z,101749.47
2022-08-30T17:03:40.888Z,101756.31
2022-08-30T17:06:08.497Z,101755.16
2022-08-30T17:08:35.744Z,101757.66
2022-08-30T17:11:03.437Z,101760.47
2022-08-30T17:13:30.712Z,101756.44
2022-08-30T17:16:00.104Z,101757.84
2022-08-30T17:18:27.106Z,101758.13
2022-08-30T17:20:54.113Z,101769.81
2022-08-30T17:23:22.376Z,101772.34
2022-08-30T17:25:50.632Z,101765.78
2022-08-30T17:28:17.671Z,101777.22
2022-08-30T17:30:46.962Z,101774.81
2022-08-30T17:33:15.336Z,101783.38
2022-08-30T17:35:44.695Z,101776.94
2022-08-30T17:38:11.667Z,101779.34
2022-08-30T17:40:38.857Z,101779.66
2022-08-30T17:43:08.048Z,101785.41
2022-08-30T17:45:35.225Z,101797.03
2022-08-30T17:48:02.457Z,101791.00
2022-08-30T17:50:29.408Z,101790.28
2022-08-30T17:53:00.485Z,101785.09
2022-08-30T17:55:28.492Z,101797.03
2022-08-30T17:58:00.589Z,101792.47
2022-08-30T18:00:34.314Z,101795.19
2022-08-30T18:03:01.739Z,101802.63
2022-08-30T18:05:29.446Z,101803.81
2022-08-30T18:07:56.381Z,101813.28
2022-08-30T18:10:30.506Z,101816.19
2022-08-30T18:13:01.346Z,101812.97
2022-08-30T18:15:29.654Z,101822.19
2022-08-30T18:17:56.469Z,101825.75
2022-08-30T18:20:23.338Z,101830.19
2022-08-30T18:22:53.819Z,101832.03
2022-08-30T18:25:21.247Z,101831.06
2022-08-30T18:27:57.284Z,101833.38
2022-08-30T18:30:33.246Z,101835.00
2022-08-30T18:33:01.613Z,101834.03
2022-08-30T18:35:29.773Z,101838.38
2022-08-30T18:37:58.221Z,101838.94
2022-08-30T18:40:25.108Z,101842.91
2022-08-30T18:42:51.904Z,101835.88
2022-08-30T18:45:19.171Z,101851.16
2022-08-30T18:47:45.861Z,101844.88
2022-08-30T18:50:12.988Z,101843.22
2022-08-30T18:52:40.192Z,101842.81
2022-08-30T18:55:07.500Z,101850.94
2022-08-30T18:57:35.342Z,101843.34
2022-08-30T19:00:03.818Z,101849.63
2022-08-30T19:02:30.777Z,101841.44
2022-08-30T19:04:59.102Z,101841.34
2022-08-30T19:07:29.914Z,101835.94
2022-08-30T19:10:01.899Z,101831.38
2022-08-30T19:12:30.130Z,101832.72
2022-08-30T19:14:57.059Z,101835.50
2022-08-30T19:17:26.441Z,101830.09
2022-08-30T19:19:54.688Z,101828.34
2022-08-30T19:22:22.811Z,101836.75
2022-08-30T19:24:53.535Z,101837.94
2022-08-30T19:27:37.141Z,101848.19
2022-08-30T19:30:23.157Z,101845.81
2022-08-30T19:32:51.426Z,101847.97
2022-08-30T19:35:19.536Z,101849.25
2022-08-30T19:37:46.392Z,101852.22
2022-08-30T19:40:15.781Z,101847.94
2022-08-30T19:42:45.782Z,101845.59
2022-08-30T19:45:15.579Z,101850.06
2022-08-30T19:47:42.669Z,101852.13
2022-08-30T19:50:09.729Z,101848.97
2022-08-30T19:52:37.344Z,101858.22
2022-08-30T19:55:06.865Z,101855.94
2022-08-30T19:57:33.970Z,101858.00
2022-08-30T20:00:01.211Z,101855.53
2022-08-30T20:02:39.811Z,101858.75
2022-08-30T20:05:07.268Z,101862.66
2022-08-30T20:07:36.778Z,101860.25
2022-08-30T20:10:07.457Z,101864.00
2022-08-30T20:12:35.843Z,101871.50
2022-08-30T20:15:09.319Z,101870.91
2022-08-30T20:17:53.665Z,101873.91
2022-08-30T20:20:24.086Z,101870.59
2022-08-30T20:22:54.056Z,101879.88
2022-08-30T20:25:21.607Z,101874.56
2022-08-30T20:27:49.197Z,101874.88
2022-08-30T20:30:17.822Z,101876.00
2022-08-30T20:32:46.830Z,101876.19
2022-08-30T20:35:15.532Z,101873.66
2022-08-30T20:37:43.403Z,101875.66
2022-08-30T20:40:15.595Z,101872.22
2022-08-30T20:42:45.704Z,101875.03
2022-08-30T20:45:15.289Z,101873.56
2022-08-30T20:47:43.163Z,101872.84
2022-08-30T20:50:13.771Z,101875.72
2022-08-30T20:52:41.855Z,101880.22
2022-08-30T20:55:09.362Z,101879.66
2022-08-30T20:57:36.173Z,101888.78
2022-08-30T21:00:09.379Z,101886.28
2022-08-30T21:02:36.940Z,101882.72
2022-08-30T21:05:10.826Z,101884.69
2022-08-30T21:07:37.599Z,101891.06
2022-08-30T21:10:04.802Z,101895.06
2022-08-30T21:12:32.098Z,101887.03
2022-08-30T21:14:59.214Z,101891.63
2022-08-30T21:17:27.346Z,101888.13
2022-08-30T21:19:55.401Z,101893.50
2022-08-30T21:22:23.154Z,101896.13
2022-08-30T21:24:49.955Z,101894.50
2022-08-30T21:27:16.721Z,101891.81
2022-08-30T21:29:43.646Z,101902.78
2022-08-30T21:32:10.585Z,101892.97
2022-08-30T21:34:56.023Z,101907.56
2022-08-30T21:37:22.791Z,101900.78
2022-08-30T21:39:49.743Z,101904.41
2022-08-30T21:42:16.848Z,101900.03
2022-08-30T21:44:43.545Z,101908.19
2022-08-30T21:47:13.251Z,101894.72
2022-08-30T21:49:49.961Z,101895.81
2022-08-30T21:52:16.866Z,101902.22
2022-08-30T21:54:43.573Z,101899.53
2022-08-30T21:57:10.302Z,101908.72
2022-08-30T21:59:36.987Z,101904.34
2022-08-30T22:02:04.441Z,101913.19
2022-08-30T22:04:31.227Z,101906.81
2022-08-30T22:06:58.008Z,101899.69
2022-08-30T22:09:25.511Z,101907.50
2022-08-30T22:11:52.441Z,101912.59
2022-08-30T22:14:19.950Z,101901.88
2022-08-30T22:16:46.789Z,101906.25
2022-08-30T22:19:13.568Z,101919.66
2022-08-30T22:21:42.066Z,101908.94
2022-08-30T22:24:09.737Z,101918.81
2022-08-30T22:26:36.733Z,101909.75
2022-08-30T22:29:05.192Z,101916.97
2022-08-30T22:31:32.105Z,101909.81
2022-08-30T22:33:59.010Z,101913.53
2022-08-30T22:36:32.624Z,101912.72
2022-08-30T22:39:00.874Z,101916.41
2022-08-30T22:41:31.385Z,101912.00
2022-08-30T22:43:58.844Z,101906.69
2022-08-30T22:46:34.623Z,101913.03
2022-08-30T22:49:02.461Z,101911.41
2022-08-30T22:51:29.275Z,101907.22
2022-08-30T22:53:56.089Z,101917.22
2022-08-30T22:56:25.737Z,101923.56
2022-08-30T22:58:53.455Z,101923.78
2022-08-30T23:01:23.886Z,101925.66
2022-08-30T23:03:51.863Z,101928.56
2022-08-30T23:06:19.092Z,101932.28
2022-08-30T23:08:45.853Z,101923.31
2022-08-30T23:11:12.837Z,101923.38
2022-08-30T23:13:39.713Z,101930.72
2022-08-30T23:16:07.941Z,101932.63
2022-08-30T23:18:36.897Z,101933.69
2022-08-30T23:21:10.872Z,101931.22
2022-08-30T23:23:57.046Z,101927.88
2022-08-30T23:26:42.773Z,101935.97
2022-08-30T23:29:28.118Z,101934.41
2022-08-30T23:32:13.764Z,101939.97
2022-08-30T23:34:59.225Z,101931.16
2022-08-30T23:37:44.544Z,101936.81
2022-08-30T23:40:33.106Z,101928.94
2022-08-30T23:43:18.625Z,101938.28
2022-08-30T23:46:04.329Z,101933.06
2022-08-30T23:48:51.981Z,101935.09
2022-08-30T23:51:37.876Z,101938.06
2022-08-30T23:54:24.311Z,101932.72
2022-08-30T23:57:09.662Z,101942.69
2022-08-30T23:59:55.113Z,101940.03
